sensor_id;sensor_type;location;lat;lon;timestamp;pressure;altitude;pressure_sealevel;temperature;humidity
81379;BME280;70830;42.290;-71.354;2023-11-19T00:00:20;100221.97;;;3.63;58.04
81379;BME280;70830;42.290;-71.354;2023-11-19T00:02:46;100231.63;;;3.58;58.14
81379;BME280;70830;42.290;-71.354;2023-11-19T00:05:13;100241.31;;;3.53;58.22
81379;BME280;70830;42.290;-71.354;2023-11-19T00:07:39;100242.28;;;3.47;58.64
81379;BME280;70830;42.290;-71.354;2023-11-19T00:10:13;100236.31;;;3.41;58.91
81379;BME280;70830;42.290;-71.354;2023-11-19T00:12:41;100240.75;;;3.37;58.42
81379;BME280;70830;42.290;-71.354;2023-11-19T00:15:08;100240.78;;;3.34;58.87
81379;BME280;70830;42.290;-71.354;2023-11-19T00:17:38;100250.44;;;3.31;58.98
81379;BME280;70830;42.290;-71.354;2023-11-19T00:20:06;100249.59;;;3.27;58.88
81379;BME280;70830;42.290;-71.354;2023-11-19T00:22:33;100258.25;;;3.29;58.67
81379;BME280;70830;42.290;-71.354;2023-11-19T00:24:59;100253.13;;;3.26;58.77
81379;BME280;70830;42.290;-71.354;2023-11-19T00:27:26;100255.72;;;3.25;59.29
81379;BME280;70830;42.290;-71.354;2023-11-19T00:29:51;100261.88;;;3.22;58.60
81379;BME280;70830;42.290;-71.354;2023-11-19T00:32:17;100262.75;;;3.21;58.85
81379;BME280;70830;42.290;-71.354;2023-11-19T00:34:46;100258.50;;;3.16;58.74
81379;BME280;70830;42.290;-71.354;2023-11-19T00:37:14;100262.00;;;3.15;59.55
81379;BME280;70830;42.290;-71.354;2023-11-19T00:39:41;100262.94;;;3.11;59.28
81379;BME280;70830;42.290;-71.354;2023-11-19T00:42:07;100266.50;;;3.07;59.41
81379;BME280;70830;42.290;-71.354;2023-11-19T00:44:33;100259.75;;;2.95;59.82
81379;BME280;70830;42.290;-71.354;2023-11-19T00:46:59;100272.66;;;3.01;59.56
81379;BME280;70830;42.290;-71.354;2023-11-19T00:49:28;100277.06;;;2.97;59.71
81379;BME280;70830;42.290;-71.354;2023-11-19T00:51:54;100275.38;;;2.93;58.98
81379;BME280;70830;42.290;-71.354;2023-11-19T00:54:20;100273.72;;;2.91;59.21
81379;BME280;70830;42.290;-71.354;2023-11-19T00:56:46;100272.00;;;2.88;59.49
81379;BME280;70830;42.290;-71.354;2023-11-19T00:59:12;100272.91;;;2.86;59.82
81379;BME280;70830;42.290;-71.354;2023-11-19T01:01:37;100255.69;;;2.79;59.27
81379;BME280;70830;42.290;-71.354;2023-11-19T01:04:03;100268.72;;;2.76;60.36
81379;BME280;70830;42.290;-71.354;2023-11-19T01:06:30;100269.72;;;2.70;59.97
81379;BME280;70830;42.290;-71.354;2023-11-19T01:08:57;100260.28;;;2.63;60.24
81379;BME280;70830;42.290;-71.354;2023-11-19T01:11:23;100267.25;;;2.61;59.88
81379;BME280;70830;42.290;-71.354;2023-11-19T01:13:50;100262.88;;;2.63;59.46
81379;BME280;70830;42.290;-71.354;2023-11-19T01:16:16;100262.03;;;2.61;59.92
81379;BME280;70830;42.290;-71.354;2023-11-19T01:18:42;100271.53;;;2.62;60.16
81379;BME280;70830;42.290;-71.354;2023-11-19T01:21:07;100276.81;;;2.59;60.08
81379;BME280;70830;42.290;-71.354;2023-11-19T01:23:34;100286.41;;;2.57;60.05
81379;BME280;70830;42.290;-71.354;2023-11-19T01:26:00;100284.69;;;2.55;60.03
81379;BME280;70830;42.290;-71.354;2023-11-19T01:28:26;100294.16;;;2.59;60.09
81379;BME280;70830;42.290;-71.354;2023-11-19T01:30:53;100295.09;;;2.55;60.22
81379;BME280;70830;42.290;-71.354;2023-11-19T01:33:18;100304.56;;;2.59;60.39
81379;BME280;70830;42.290;-71.354;2023-11-19T01:35:44;100316.72;;;2.58;60.17
81379;BME280;70830;42.290;-71.354;2023-11-19T01:38:10;100315.03;;;2.56;59.69
81379;BME280;70830;42.290;-71.354;2023-11-19T01:40:37;100320.22;;;2.57;59.73
81379;BME280;70830;42.290;-71.354;2023-11-19T01:43:03;100327.19;;;2.54;60.01
81379;BME280;70830;42.290;-71.354;2023-11-19T01:45:30;100334.16;;;2.53;60.41
81379;BME280;70830;42.290;-71.354;2023-11-19T01:47:58;100334.19;;;2.50;60.18
81379;BME280;70830;42.290;-71.354;2023-11-19T01:50:25;100345.47;;;2.49;60.47
81379;BME280;70830;42.290;-71.354;2023-11-19T01:52:55;100350.69;;;2.49;60.28
81379;BME280;70830;42.290;-71.354;2023-11-19T01:55:24;100336.84;;;2.47;60.39
81379;BME280;70830;42.290;-71.354;2023-11-19T01:57:53;100338.66;;;2.42;60.35
81379;BME280;70830;42.290;-71.354;2023-11-19T02:00:21;100329.19;;;2.37;60.90
81379;BME280;70830;42.290;-71.354;2023-11-19T02:02:48;100333.50;;;2.36;60.41
81379;BME280;70830;42.290;-71.354;2023-11-19T02:05:14;100328.41;;;2.30;60.65
81379;BME280;70830;42.290;-71.354;2023-11-19T02:07:40;100338.78;;;2.33;60.29
81379;BME280;70830;42.290;-71.354;2023-11-19T02:10:06;100348.31;;;2.33;60.40
81379;BME280;70830;42.290;-71.354;2023-11-19T02:12:40;100340.56;;;2.28;59.69
81379;BME280;70830;42.290;-71.354;2023-11-19T02:15:09;100346.66;;;2.29;60.02
81379;BME280;70830;42.290;-71.354;2023-11-19T02:17:35;100339.72;;;2.26;60.59
81379;BME280;70830;42.290;-71.354;2023-11-19T02:20:04;100345.00;;;2.21;60.39
81379;BME280;70830;42.290;-71.354;2023-11-19T02:22:34;100335.50;;;2.19;60.00
81379;BME280;70830;42.290;-71.354;2023-11-19T02:25:25;100328.59;;;2.13;60.75
81379;BME280;70830;42.290;-71.354;2023-11-19T02:27:58;100332.09;;;2.12;60.31
81379;BME280;70830;42.290;-71.354;2023-11-19T02:30:25;100338.22;;;2.08;60.96
81379;BME280;70830;42.290;-71.354;2023-11-19T02:32:58;100342.59;;;2.06;60.91
81379;BME280;70830;42.290;-71.354;2023-11-19T02:35:27;100340.03;;;2.02;61.19
81379;BME280;70830;42.290;-71.354;2023-11-19T02:37:54;100353.91;;;2.01;60.88
81379;BME280;70830;42.290;-71.354;2023-11-19T02:40:20;100343.56;;;1.96;60.81
81379;BME280;70830;42.290;-71.354;2023-11-19T02:42:48;100344.47;;;1.92;61.60
81379;BME280;70830;42.290;-71.354;2023-11-19T02:45:14;100342.81;;;1.88;60.99
81379;BME280;70830;42.290;-71.354;2023-11-19T02:47:41;100332.44;;;1.82;61.58
81379;BME280;70830;42.290;-71.354;2023-11-19T02:50:11;100343.75;;;1.81;61.76
81379;BME280;70830;42.290;-71.354;2023-11-19T02:52:44;100332.56;;;1.75;61.66
81379;BME280;70830;42.290;-71.354;2023-11-19T02:55:12;100340.38;;;1.72;61.74
81379;BME280;70830;42.290;-71.354;2023-11-19T02:57:41;100349.03;;;1.72;61.65
81379;BME280;70830;42.290;-71.354;2023-11-19T03:00:19;100350.81;;;1.69;62.29
81379;BME280;70830;42.290;-71.354;2023-11-19T03:02:49;100356.03;;;1.69;62.16
81379;BME280;70830;42.290;-71.354;2023-11-19T03:05:25;100356.88;;;1.68;62.01
81379;BME280;70830;42.290;-71.354;2023-11-19T03:07:52;100351.72;;;1.66;61.98
81379;BME280;70830;42.290;-71.354;2023-11-19T03:10:18;100351.75;;;1.62;62.06
81379;BME280;70830;42.290;-71.354;2023-11-19T03:12:44;100359.53;;;1.63;61.94
81379;BME280;70830;42.290;-71.354;2023-11-19T03:15:13;100347.44;;;1.59;62.10
81379;BME280;70830;42.290;-71.354;2023-11-19T03:17:41;100351.81;;;1.54;62.19
81379;BME280;70830;42.290;-71.354;2023-11-19T03:20:09;100353.59;;;1.51;62.72
81379;BME280;70830;42.290;-71.354;2023-11-19T03:22:42;100343.31;;;1.41;63.32
81379;BME280;70830;42.290;-71.354;2023-11-19T03:25:09;100343.38;;;1.34;63.34
81379;BME280;70830;42.290;-71.354;2023-11-19T03:27:39;100343.44;;;1.26;63.54
81379;BME280;70830;42.290;-71.354;2023-11-19T03:30:10;100342.63;;;1.21;63.82
81379;BME280;70830;42.290;-71.354;2023-11-19T03:32:36;100343.59;;;1.10;63.47
81379;BME280;70830;42.290;-71.354;2023-11-19T03:35:05;100345.38;;;1.03;63.56
81379;BME280;70830;42.290;-71.354;2023-11-19T03:37:34;100345.47;;;0.93;64.12
81379;BME280;70830;42.290;-71.354;2023-11-19T03:40:01;100357.56;;;0.89;64.27
81379;BME280;70830;42.290;-71.354;2023-11-19T03:42:28;100346.44;;;0.80;64.66
81379;BME280;70830;42.290;-71.354;2023-11-19T03:44:55;100357.72;;;0.72;64.93
81379;BME280;70830;42.290;-71.354;2023-11-19T03:47:21;100363.81;;;0.68;64.89
81379;BME280;70830;42.290;-71.354;2023-11-19T03:49:48;100361.25;;;0.61;65.24
81379;BME280;70830;42.290;-71.354;2023-11-19T03:52:14;100372.53;;;0.55;64.80
81379;BME280;70830;42.290;-71.354;2023-11-19T03:54:40;100367.38;;;0.48;65.54
81379;BME280;70830;42.290;-71.354;2023-11-19T03:57:06;100366.53;;;0.43;65.38
81379;BME280;70830;42.290;-71.354;2023-11-19T03:59:32;100369.16;;;0.38;65.60
81379;BME280;70830;42.290;-71.354;2023-11-19T04:01:59;100390.78;;;0.33;65.91
81379;BME280;70830;42.290;-71.354;2023-11-19T04:04:26;100387.34;;;0.29;65.96
81379;BME280;70830;42.290;-71.354;2023-11-19T04:06:56;100396.84;;;0.27;66.33
81379;BME280;70830;42.290;-71.354;2023-11-19T04:09:22;100395.16;;;0.23;66.81
81379;BME280;70830;42.290;-71.354;2023-11-19T04:11:48;100394.31;;;0.17;66.85
81379;BME280;70830;42.290;-71.354;2023-11-19T04:14:14;100400.38;;;0.13;67.09
81379;BME280;70830;42.290;-71.354;2023-11-19T04:16:40;100386.56;;;0.09;67.08
81379;BME280;70830;42.290;-71.354;2023-11-19T04:19:06;100391.75;;;0.05;67.38
81379;BME280;70830;42.290;-71.354;2023-11-19T04:21:33;100382.25;;;0.04;67.68
81379;BME280;70830;42.290;-71.354;2023-11-19T04:23:59;100385.72;;;0.06;67.54
81379;BME280;70830;42.290;-71.354;2023-11-19T04:26:25;100379.66;;;0.05;67.43
81379;BME280;70830;42.290;-71.354;2023-11-19T04:28:50;100380.50;;;0.07;67.10
81379;BME280;70830;42.290;-71.354;2023-11-19T04:31:16;100390.91;;;0.09;67.62
81379;BME280;70830;42.290;-71.354;2023-11-19T04:33:43;100390.03;;;0.08;67.53
81379;BME280;70830;42.290;-71.354;2023-11-19T04:36:10;100404.72;;;0.11;67.33
81379;BME280;70830;42.290;-71.354;2023-11-19T04:38:35;100418.53;;;0.13;66.95
81379;BME280;70830;42.290;-71.354;2023-11-19T04:41:05;100415.91;;;0.17;67.44
81379;BME280;70830;42.290;-71.354;2023-11-19T04:43:32;100415.03;;;0.17;67.27
81379;BME280;70830;42.290;-71.354;2023-11-19T04:45:58;100419.34;;;0.19;66.74
81379;BME280;70830;42.290;-71.354;2023-11-19T04:48:24;100423.69;;;0.14;67.17
81379;BME280;70830;42.290;-71.354;2023-11-19T04:50:50;100418.53;;;0.13;66.88
81379;BME280;70830;42.290;-71.354;2023-11-19T04:53:18;100412.47;;;0.12;66.71
81379;BME280;70830;42.290;-71.354;2023-11-19T04:55:44;100416.78;;;0.16;67.02
81379;BME280;70830;42.290;-71.354;2023-11-19T04:58:10;100413.34;;;0.13;67.62
81379;BME280;70830;42.290;-71.354;2023-11-19T05:00:36;100416.81;;;0.13;67.07
81379;BME280;70830;42.290;-71.354;2023-11-19T05:03:02;100421.97;;;0.10;66.76
81379;BME280;70830;42.290;-71.354;2023-11-19T05:05:28;100413.38;;;0.07;67.43
81379;BME280;70830;42.290;-71.354;2023-11-19T05:07:54;100422.00;;;0.09;67.14
81379;BME280;70830;42.290;-71.354;2023-11-19T05:10:20;100417.66;;;0.09;67.57
81379;BME280;70830;42.290;-71.354;2023-11-19T05:12:46;100433.22;;;0.08;67.79
81379;BME280;70830;42.290;-71.354;2023-11-19T05:15:12;100434.94;;;0.07;67.50
81379;BME280;70830;42.290;-71.354;2023-11-19T05:17:39;100437.56;;;0.04;67.47
81379;BME280;70830;42.290;-71.354;2023-11-19T05:20:05;100438.44;;;0.00;67.49
81379;BME280;70830;42.290;-71.354;2023-11-19T05:22:41;100422.88;;;-0.06;67.74
81379;BME280;70830;42.290;-71.354;2023-11-19T05:25:08;100428.06;;;-0.06;68.07
81379;BME280;70830;42.290;-71.354;2023-11-19T05:27:35;100430.66;;;-0.11;67.52
81379;BME280;70830;42.290;-71.354;2023-11-19T05:30:02;100436.72;;;-0.12;67.98
81379;BME280;70830;42.290;-71.354;2023-11-19T05:32:28;100433.28;;;-0.17;68.01
81379;BME280;70830;42.290;-71.354;2023-11-19T05:34:54;100418.59;;;-0.22;68.19
81379;BME280;70830;42.290;-71.354;2023-11-19T05:37:20;100418.63;;;-0.31;68.56
81379;BME280;70830;42.290;-71.354;2023-11-19T05:39:45;100424.69;;;-0.34;68.64
81379;BME280;70830;42.290;-71.354;2023-11-19T05:42:11;100418.63;;;-0.39;68.53
81379;BME280;70830;42.290;-71.354;2023-11-19T05:44:37;100428.16;;;-0.42;68.92
81379;BME280;70830;42.290;-71.354;2023-11-19T05:47:03;100429.84;;;-0.49;69.31
81379;BME280;70830;42.290;-71.354;2023-11-19T05:49:29;100425.56;;;-0.54;68.86
81379;BME280;70830;42.290;-71.354;2023-11-19T05:51:55;100421.22;;;-0.55;69.49
81379;BME280;70830;42.290;-71.354;2023-11-19T05:54:21;100415.19;;;-0.62;69.23
81379;BME280;70830;42.290;-71.354;2023-11-19T05:56:48;100441.09;;;-0.60;69.58
81379;BME280;70830;42.290;-71.354;2023-11-19T05:59:20;100430.75;;;-0.65;69.41
81379;BME280;70830;42.290;-71.354;2023-11-19T06:01:46;100438.50;;;-0.68;69.64
81379;BME280;70830;42.290;-71.354;2023-11-19T06:04:12;100441.09;;;-0.74;70.14
81379;BME280;70830;42.290;-71.354;2023-11-19T06:06:38;100438.50;;;-0.77;69.96
81379;BME280;70830;42.290;-71.354;2023-11-19T06:09:05;100428.13;;;-0.82;70.14
81379;BME280;70830;42.290;-71.354;2023-11-19T06:11:35;100441.94;;;-0.81;70.06
81379;BME280;70830;42.290;-71.354;2023-11-19T06:14:01;100435.91;;;-0.86;69.87
81379;BME280;70830;42.290;-71.354;2023-11-19T06:16:31;100438.47;;;-0.91;70.64
81379;BME280;70830;42.290;-71.354;2023-11-19T06:18:57;100429.84;;;-0.97;70.69
81379;BME280;70830;42.290;-71.354;2023-11-19T06:21:22;100434.16;;;-0.98;70.86
81379;BME280;70830;42.290;-71.354;2023-11-19T06:23:48;100433.28;;;-1.00;70.44
81379;BME280;70830;42.290;-71.354;2023-11-19T06:26:17;100418.63;;;-1.04;70.99
81379;BME280;70830;42.290;-71.354;2023-11-19T06:28:42;100435.88;;;-1.03;70.79
81379;BME280;70830;42.290;-71.354;2023-11-19T06:31:08;100424.66;;;-1.06;71.05
81379;BME280;70830;42.290;-71.354;2023-11-19T06:33:34;100422.06;;;-1.06;71.28
81379;BME280;70830;42.290;-71.354;2023-11-19T06:36:00;100428.97;;;-1.10;71.21
81379;BME280;70830;42.290;-71.354;2023-11-19T06:38:26;100428.97;;;-1.11;71.53
81379;BME280;70830;42.290;-71.354;2023-11-19T06:40:52;100441.03;;;-1.10;71.74
81379;BME280;70830;42.290;-71.354;2023-11-19T06:43:18;100440.16;;;-1.15;71.52
81379;BME280;70830;42.290;-71.354;2023-11-19T06:45:44;100441.03;;;-1.18;71.85
81379;BME280;70830;42.290;-71.354;2023-11-19T06:48:10;100433.28;;;-1.22;71.79
81379;BME280;70830;42.290;-71.354;2023-11-19T06:50:36;100438.44;;;-1.25;72.68
81379;BME280;70830;42.290;-71.354;2023-11-19T06:53:02;100444.44;;;-1.26;72.25
81379;BME280;70830;42.290;-71.354;2023-11-19T06:55:28;100428.91;;;-1.35;72.13
81379;BME280;70830;42.290;-71.354;2023-11-19T06:57:54;100443.56;;;-1.33;72.61
81379;BME280;70830;42.290;-71.354;2023-11-19T07:00:20;100449.59;;;-1.32;72.33
81379;BME280;70830;42.290;-71.354;2023-11-19T07:02:45;100458.22;;;-1.30;72.79
81379;BME280;70830;42.290;-71.354;2023-11-19T07:05:11;100443.56;;;-1.33;72.80
81379;BME280;70830;42.290;-71.354;2023-11-19T07:07:38;100451.34;;;-1.30;73.38
81379;BME280;70830;42.290;-71.354;2023-11-19T07:10:06;100456.50;;;-1.28;72.81
81379;BME280;70830;42.290;-71.354;2023-11-19T07:12:34;100446.16;;;-1.33;72.86
81379;BME280;70830;42.290;-71.354;2023-11-19T07:15:01;100463.41;;;-1.30;72.94
81379;BME280;70830;42.290;-71.354;2023-11-19T07:17:30;100457.34;;;-1.35;73.29
81379;BME280;70830;42.290;-71.354;2023-11-19T07:19:56;100457.38;;;-1.34;72.84
81379;BME280;70830;42.290;-71.354;2023-11-19T07:22:25;100464.25;;;-1.36;73.33
81379;BME280;70830;42.290;-71.354;2023-11-19T07:24:51;100466.84;;;-1.33;72.97
81379;BME280;70830;42.290;-71.354;2023-11-19T07:27:19;100454.75;;;-1.37;73.33
81379;BME280;70830;42.290;-71.354;2023-11-19T07:29:44;100460.78;;;-1.42;73.55
81379;BME280;70830;42.290;-71.354;2023-11-19T07:32:11;100473.75;;;-1.38;73.19
81379;BME280;70830;42.290;-71.354;2023-11-19T07:34:39;100469.41;;;-1.45;73.27
81379;BME280;70830;42.290;-71.354;2023-11-19T07:37:06;100471.13;;;-1.47;73.07
81379;BME280;70830;42.290;-71.354;2023-11-19T07:39:32;100474.53;;;-1.51;73.33
81379;BME280;70830;42.290;-71.354;2023-11-19T07:41:59;100476.25;;;-1.53;73.53
81379;BME280;70830;42.290;-71.354;2023-11-19T07:44:25;100477.97;;;-1.55;73.70
81379;BME280;70830;42.290;-71.354;2023-11-19T07:46:51;100484.88;;;-1.54;73.89
81379;BME280;70830;42.290;-71.354;2023-11-19T07:49:17;100472.78;;;-1.58;73.86
81379;BME280;70830;42.290;-71.354;2023-11-19T07:51:43;100470.19;;;-1.61;74.03
81379;BME280;70830;42.290;-71.354;2023-11-19T07:54:09;100472.75;;;-1.60;73.72
81379;BME280;70830;42.290;-71.354;2023-11-19T07:56:35;100474.50;;;-1.59;74.24
81379;BME280;70830;42.290;-71.354;2023-11-19T07:59:02;100468.44;;;-1.64;73.67
81379;BME280;70830;42.290;-71.354;2023-11-19T08:01:28;100485.66;;;-1.64;73.90
81379;BME280;70830;42.290;-71.354;2023-11-19T08:03:54;100483.94;;;-1.68;73.99
81379;BME280;70830;42.290;-71.354;2023-11-19T08:06:20;100492.56;;;-1.65;74.48
81379;BME280;70830;42.290;-71.354;2023-11-19T08:08:46;100490.81;;;-1.69;74.59
81379;BME280;70830;42.290;-71.354;2023-11-19T08:11:13;100486.50;;;-1.70;74.77
81379;BME280;70830;42.290;-71.354;2023-11-19T08:13:39;100483.94;;;-1.70;74.34
81379;BME280;70830;42.290;-71.354;2023-11-19T08:16:05;100496.84;;;-1.71;74.02
81379;BME280;70830;42.290;-71.354;2023-11-19T08:18:31;100499.41;;;-1.74;74.67
81379;BME280;70830;42.290;-71.354;2023-11-19T08:20:57;100497.66;;;-1.78;74.35
81379;BME280;70830;42.290;-71.354;2023-11-19T08:23:24;100501.97;;;-1.80;74.75
81379;BME280;70830;42.290;-71.354;2023-11-19T08:25:51;100504.56;;;-1.76;75.06
81379;BME280;70830;42.290;-71.354;2023-11-19T08:28:18;100511.44;;;-1.78;75.19
81379;BME280;70830;42.290;-71.354;2023-11-19T08:30:44;100517.50;;;-1.76;75.39
81379;BME280;70830;42.290;-71.354;2023-11-19T08:33:10;100514.91;;;-1.74;74.63
81379;BME280;70830;42.290;-71.354;2023-11-19T08:35:37;100511.44;;;-1.79;75.21
81379;BME280;70830;42.290;-71.354;2023-11-19T08:38:02;100513.16;;;-1.77;75.39
81379;BME280;70830;42.290;-71.354;2023-11-19T08:40:28;100512.31;;;-1.74;75.42
81379;BME280;70830;42.290;-71.354;2023-11-19T08:42:57;100505.44;;;-1.72;75.70
81379;BME280;70830;42.290;-71.354;2023-11-19T08:45:23;100508.91;;;-1.72;75.56
81379;BME280;70830;42.290;-71.354;2023-11-19T08:47:49;100501.13;;;-1.75;75.40
81379;BME280;70830;42.290;-71.354;2023-11-19T08:50:14;100499.41;;;-1.73;75.23
81379;BME280;70830;42.290;-71.354;2023-11-19T08:52:40;100499.41;;;-1.73;75.73
81379;BME280;70830;42.290;-71.354;2023-11-19T08:55:07;100495.94;;;-1.73;75.36
81379;BME280;70830;42.290;-71.354;2023-11-19T08:57:35;100489.94;;;-1.74;75.40
81379;BME280;70830;42.290;-71.354;2023-11-19T09:00:01;100493.38;;;-1.73;75.61
81379;BME280;70830;42.290;-71.354;2023-11-19T09:02:28;100485.63;;;-1.75;75.65
81379;BME280;70830;42.290;-71.354;2023-11-19T09:04:54;100484.75;;;-1.77;75.72
81379;BME280;70830;42.290;-71.354;2023-11-19T09:07:20;100486.50;;;-1.74;74.91
81379;BME280;70830;42.290;-71.354;2023-11-19T09:09:46;100489.91;;;-1.75;75.28
81379;BME280;70830;42.290;-71.354;2023-11-19T09:12:12;100498.56;;;-1.70;75.36
81379;BME280;70830;42.290;-71.354;2023-11-19T09:14:39;100507.19;;;-1.68;74.92
81379;BME280;70830;42.290;-71.354;2023-11-19T09:17:05;100504.59;;;-1.67;75.47
81379;BME280;70830;42.290;-71.354;2023-11-19T09:19:32;100511.50;;;-1.66;75.16
81379;BME280;70830;42.290;-71.354;2023-11-19T09:22:01;100512.38;;;-1.64;74.91
81379;BME280;70830;42.290;-71.354;2023-11-19T09:24:28;100498.59;;;-1.64;74.72
81379;BME280;70830;42.290;-71.354;2023-11-19T09:26:53;100502.94;;;-1.60;75.13
81379;BME280;70830;42.290;-71.354;2023-11-19T09:29:21;100511.56;;;-1.57;75.11
81379;BME280;70830;42.290;-71.354;2023-11-19T09:31:47;100506.38;;;-1.60;74.76
81379;BME280;70830;42.290;-71.354;2023-11-19T09:34:13;100524.47;;;-1.55;74.89
81379;BME280;70830;42.290;-71.354;2023-11-19T09:36:43;100499.44;;;-1.67;74.67
81379;BME280;70830;42.290;-71.354;2023-11-19T09:39:11;100516.72;;;-1.57;74.78
81379;BME280;70830;42.290;-71.354;2023-11-19T09:41:37;100509.81;;;-1.61;74.58
81379;BME280;70830;42.290;-71.354;2023-11-19T09:44:03;100514.16;;;-1.58;74.45
81379;BME280;70830;42.290;-71.354;2023-11-19T09:46:29;100511.50;;;-1.64;74.81
81379;BME280;70830;42.290;-71.354;2023-11-19T09:48:56;100498.59;;;-1.67;74.90
81379;BME280;70830;42.290;-71.354;2023-11-19T09:51:25;100508.09;;;-1.65;75.28
81379;BME280;70830;42.290;-71.354;2023-11-19T09:53:51;100523.59;;;-1.62;74.99
81379;BME280;70830;42.290;-71.354;2023-11-19T09:56:18;100510.66;;;-1.65;74.63
81379;BME280;70830;42.290;-71.354;2023-11-19T09:58:44;100514.94;;;-1.67;75.29
81379;BME280;70830;42.290;-71.354;2023-11-19T10:01:10;100527.03;;;-1.63;75.40
81379;BME280;70830;42.290;-71.354;2023-11-19T10:03:38;100523.59;;;-1.65;75.27
81379;BME280;70830;42.290;-71.354;2023-11-19T10:06:09;100522.69;;;-1.67;75.29
81379;BME280;70830;42.290;-71.354;2023-11-19T10:08:39;100520.97;;;-1.66;75.34
81379;BME280;70830;42.290;-71.354;2023-11-19T10:11:06;100527.00;;;-1.69;74.54
81379;BME280;70830;42.290;-71.354;2023-11-19T10:13:35;100518.38;;;-1.72;74.76
81379;BME280;70830;42.290;-71.354;2023-11-19T10:16:08;100523.53;;;-1.71;75.36
81379;BME280;70830;42.290;-71.354;2023-11-19T10:18:34;100520.09;;;-1.71;74.76
81379;BME280;70830;42.290;-71.354;2023-11-19T10:21:06;100519.22;;;-1.75;75.38
81379;BME280;70830;42.290;-71.354;2023-11-19T10:23:52;100524.38;;;-1.73;75.03
81379;BME280;70830;42.290;-71.354;2023-11-19T10:26:19;100522.59;;;-1.82;75.59
81379;BME280;70830;42.290;-71.354;2023-11-19T10:28:49;100527.84;;;-1.76;75.83
81379;BME280;70830;42.290;-71.354;2023-11-19T10:31:18;100535.56;;;-1.77;75.09
81379;BME280;70830;42.290;-71.354;2023-11-19T10:33:45;100539.88;;;-1.73;75.79
81379;BME280;70830;42.290;-71.354;2023-11-19T10:36:11;100539.03;;;-1.74;75.32
81379;BME280;70830;42.290;-71.354;2023-11-19T10:38:38;100533.00;;;-1.74;75.17
81379;BME280;70830;42.290;-71.354;2023-11-19T10:41:05;100546.78;;;-1.72;74.79
81379;BME280;70830;42.290;-71.354;2023-11-19T10:43:31;100538.19;;;-1.71;75.16
81379;BME280;70830;42.290;-71.354;2023-11-19T10:46:13;100547.69;;;-1.66;75.10
81379;BME280;70830;42.290;-71.354;2023-11-19T10:48:39;100549.44;;;-1.65;74.66
81379;BME280;70830;42.290;-71.354;2023-11-19T10:51:06;100550.31;;;-1.63;74.25
81379;BME280;70830;42.290;-71.354;2023-11-19T10:53:37;100552.94;;;-1.54;74.16
81379;BME280;70830;42.290;-71.354;2023-11-19T10:56:10;100562.44;;;-1.50;74.07
81379;BME280;70830;42.290;-71.354;2023-11-19T10:58:36;100558.13;;;-1.48;74.00
81379;BME280;70830;42.290;-71.354;2023-11-19T11:01:11;100564.16;;;-1.45;73.87
81379;BME280;70830;42.290;-71.354;2023-11-19T11:03:40;100576.25;;;-1.43;73.47
81379;BME280;70830;42.290;-71.354;2023-11-19T11:06:06;100578.84;;;-1.40;73.28
81379;BME280;70830;42.290;-71.354;2023-11-19T11:08:36;100581.44;;;-1.40;73.39
81379;BME280;70830;42.290;-71.354;2023-11-19T11:11:05;100584.88;;;-1.39;73.35
81379;BME280;70830;42.290;-71.354;2023-11-19T11:13:32;100589.22;;;-1.34;72.95
81379;BME280;70830;42.290;-71.354;2023-11-19T11:16:00;100592.69;;;-1.33;73.02
81379;BME280;70830;42.290;-71.354;2023-11-19T11:18:26;100589.22;;;-1.32;72.58
81379;BME280;70830;42.290;-71.354;2023-11-19T11:21:22;100593.53;;;-1.34;73.39
81379;BME280;70830;42.290;-71.354;2023-11-19T11:32:40;100590.09;;;-1.38;72.77
81379;BME280;70830;42.290;-71.354;2023-11-19T11:38:03;100606.47;;;-1.36;72.73
81379;BME280;70830;42.290;-71.354;2023-11-19T11:40:30;100604.72;;;-1.37;72.89
81379;BME280;70830;42.290;-71.354;2023-11-19T11:42:57;100596.94;;;-1.43;72.91
81379;BME280;70830;42.290;-71.354;2023-11-19T11:45:39;100603.84;;;-1.40;73.05
81379;BME280;70830;42.290;-71.354;2023-11-19T11:48:09;100602.97;;;-1.42;72.92
81379;BME280;70830;42.290;-71.354;2023-11-19T11:50:50;100599.53;;;-1.43;72.82
81379;BME280;70830;42.290;-71.354;2023-11-19T11:53:21;100585.69;;;-1.47;73.15
81379;BME280;70830;42.290;-71.354;2023-11-19T11:58:18;100592.63;;;-1.39;72.87
81379;BME280;70830;42.290;-71.354;2023-11-19T12:00:46;100579.75;;;-1.36;73.00
81379;BME280;70830;42.290;-71.354;2023-11-19T12:03:12;100587.59;;;-1.17;73.29
81379;BME280;70830;42.290;-71.354;2023-11-19T12:05:41;100592.91;;;-0.75;72.51
81379;BME280;70830;42.290;-71.354;2023-11-19T12:08:10;100597.34;;;-0.21;72.33
81379;BME280;70830;42.290;-71.354;2023-11-19T12:10:45;100600.75;;;0.45;71.56
81379;BME280;70830;42.290;-71.354;2023-11-19T12:13:13;100598.84;;;1.07;70.18
81379;BME280;70830;42.290;-71.354;2023-11-19T12:18:32;100604.72;;;2.58;67.61
81379;BME280;70830;42.290;-71.354;2023-11-19T12:20:59;100599.59;;;3.25;66.15
81379;BME280;70830;42.290;-71.354;2023-11-19T12:23:31;100608.16;;;3.95;64.72
81379;BME280;70830;42.290;-71.354;2023-11-19T12:25:58;100609.63;;;4.60;63.77
81379;BME280;70830;42.290;-71.354;2023-11-19T12:28:24;100604.00;;;5.26;61.58
81379;BME280;70830;42.290;-71.354;2023-11-19T12:30:53;100601.59;;;5.96;59.87
81379;BME280;70830;42.290;-71.354;2023-11-19T12:33:19;100607.09;;;6.54;59.08
81379;BME280;70830;42.290;-71.354;2023-11-19T12:35:46;100602.03;;;7.11;56.89
81379;BME280;70830;42.290;-71.354;2023-11-19T12:38:22;100596.88;;;7.67;55.72
81379;BME280;70830;42.290;-71.354;2023-11-19T12:43:30;100608.28;;;8.73;53.13
81379;BME280;70830;42.290;-71.354;2023-11-19T12:45:56;100603.94;;;8.72;47.43
81379;BME280;70830;42.290;-71.354;2023-11-19T12:48:22;100595.09;;;8.50;46.88
81379;BME280;70830;42.290;-71.354;2023-11-19T12:53:19;100604.19;;;8.65;47.51
81379;BME280;70830;42.290;-71.354;2023-11-19T12:55:44;100605.22;;;8.85;46.31
81379;BME280;70830;42.290;-71.354;2023-11-19T12:58:11;100611.13;;;8.92;46.71